createdAt,value
2019-04-10T00:00:37.266Z,82.20
2019-04-10T00:03:06.060Z,82.40
2019-04-10T00:05:34.113Z,82.40
2019-04-10T00:08:01.839Z,82.30
2019-04-10T00:10:29.952Z,82.40
2019-04-10T00:12:58.282Z,82.50
2019-04-10T00:15:28.626Z,82.70
2019-04-10T00:17:55.989Z,82.70
2019-04-10T00:20:24.527Z,82.80
2019-04-10T00:22:52.771Z,82.80
2019-04-10T00:25:20.936Z,82.80
2019-04-10T00:27:48.297Z,82.80
2019-04-10T00:30:16.623Z,82.90
2019-04-10T00:32:44.139Z,83.00
2019-04-10T00:35:11.385Z,83.10
2019-04-10T00:37:38.735Z,83.40
2019-04-10T00:40:06.906Z,83.80
2019-04-10T00:42:34.874Z,83.80
2019-04-10T00:45:02.287Z,83.70
2019-04-10T00:47:29.627Z,83.60
2019-04-10T00:49:57.898Z,83.50
2019-04-10T00:52:25.369Z,83.50
2019-04-10T00:54:52.715Z,83.40
2019-04-10T00:57:20.052Z,83.40
2019-04-10T00:59:48.367Z,83.40
2019-04-10T01:02:16.442Z,83.30
2019-04-10T01:04:44.752Z,83.30
2019-04-10T01:07:12.710Z,83.20
2019-04-10T01:09:40.139Z,83.20
2019-04-10T01:12:07.738Z,83.20
2019-04-10T01:14:35.946Z,83.30
2019-04-10T01:17:04.067Z,83.20
2019-04-10T01:19:32.254Z,83.30
2019-04-10T01:21:59.638Z,83.40
2019-04-10T01:24:27.884Z,83.40
2019-04-10T01:26:55.883Z,83.50
2019-04-10T01:29:23.420Z,83.60
2019-04-10T01:31:51.226Z,83.70
2019-04-10T01:34:19.021Z,83.90
2019-04-10T01:36:46.521Z,84.00
2019-04-10T01:39:19.707Z,84.10
2019-04-10T01:41:48.031Z,84.20
2019-04-10T01:44:15.485Z,84.10
2019-04-10T01:46:42.835Z,84.10
2019-04-10T01:49:10.327Z,84.20
2019-04-10T01:51:37.608Z,84.30
2019-04-10T01:54:04.979Z,84.70
2019-04-10T01:56:36.061Z,84.90
2019-04-10T01:59:01.841Z,85.00
2019-04-10T02:01:34.585Z,85.10
2019-04-10T02:04:02.649Z,85.30
2019-04-10T02:06:30.132Z,85.30
2019-04-10T02:08:58.345Z,85.30
2019-04-10T02:11:25.966Z,85.50
2019-04-10T02:13:54.003Z,85.50
2019-04-10T02:16:21.473Z,85.60
2019-04-10T02:18:49.884Z,85.60
2019-04-10T02:21:17.953Z,85.60
2019-04-10T02:23:45.408Z,85.70
2019-04-10T02:26:13.665Z,85.70
2019-04-10T02:28:40.943Z,85.60
2019-04-10T02:31:08.266Z,85.60
2019-04-10T02:33:35.776Z,85.50
2019-04-10T02:36:03.673Z,85.70
2019-04-10T02:38:50.797Z,85.70
2019-04-10T02:41:01.657Z,85.60
2019-04-10T02:43:29.382Z,85.90
2019-04-10T02:45:57.736Z,85.60
2019-04-10T02:48:25.309Z,85.70
2019-04-10T02:50:53.342Z,85.90
2019-04-10T02:53:21.562Z,86.00
2019-04-10T02:55:49.410Z,86.10
2019-04-10T02:58:18.406Z,86.00
2019-04-10T03:00:46.397Z,85.90
2019-04-10T03:03:14.000Z,86.10
2019-04-10T03:05:42.667Z,86.20
2019-04-10T03:08:11.268Z,86.30
2019-04-10T03:10:47.424Z,86.50
2019-04-10T03:13:09.043Z,86.80
2019-04-10T03:15:36.531Z,86.90
2019-04-10T03:18:04.277Z,87.10
2019-04-10T03:20:32.190Z,87.20
2019-04-10T03:22:59.640Z,87.40
2019-04-10T03:25:27.133Z,87.50
2019-04-10T03:27:54.542Z,87.50
2019-04-10T03:30:23.456Z,87.30
2019-04-10T03:33:02.912Z,87.30
2019-04-10T03:35:30.825Z,87.10
2019-04-10T03:37:59.393Z,87.00
2019-04-10T03:40:27.129Z,87.10
2019-04-10T03:42:55.092Z,87.10
2019-04-10T03:45:22.460Z,87.20
2019-04-10T03:47:49.722Z,87.10
2019-04-10T03:50:16.971Z,87.00
2019-04-10T03:52:45.268Z,86.90
2019-04-10T03:55:12.740Z,86.90
2019-04-10T03:57:40.076Z,86.80
2019-04-10T04:00:08.504Z,86.60
2019-04-10T04:02:36.072Z,86.50
2019-04-10T04:05:04.399Z,86.20
2019-04-10T04:07:32.619Z,86.10
2019-04-10T04:10:00.237Z,86.20
2019-04-10T04:12:28.515Z,86.10
2019-04-10T04:14:56.938Z,86.00
2019-04-10T04:17:24.475Z,85.90
2019-04-10T04:19:52.590Z,85.70
2019-04-10T04:22:20.864Z,85.80
2019-04-10T04:24:48.289Z,85.80
2019-04-10T04:27:15.624Z,85.80
2019-04-10T04:29:43.380Z,85.90
2019-04-10T04:32:10.743Z,86.10
2019-04-10T04:34:38.853Z,86.00
2019-04-10T04:37:06.167Z,85.90
2019-04-10T04:39:33.405Z,85.70
2019-04-10T04:42:01.677Z,85.60
2019-04-10T04:44:29.273Z,85.40
2019-04-10T04:46:57.050Z,85.20
2019-04-10T04:49:24.469Z,85.00
2019-04-10T04:51:52.590Z,84.90
2019-04-10T04:54:21.236Z,84.30
2019-04-10T04:56:48.808Z,84.30
2019-04-10T04:59:16.986Z,84.10
2019-04-10T05:01:44.770Z,83.80
2019-04-10T05:04:13.067Z,83.60
2019-04-10T05:06:41.648Z,83.30
2019-04-10T05:09:09.171Z,83.20
2019-04-10T05:11:36.475Z,83.30
2019-04-10T05:14:04.877Z,83.30
2019-04-10T05:16:32.987Z,82.90
2019-04-10T05:19:00.377Z,82.80
2019-04-10T05:21:27.696Z,82.60
2019-04-10T05:23:55.443Z,82.60
2019-04-10T05:26:22.847Z,82.60
2019-04-10T05:28:50.815Z,82.60
2019-04-10T05:31:19.272Z,82.40
2019-04-10T05:33:47.178Z,82.30
2019-04-10T05:36:15.330Z,82.20
2019-04-10T05:38:43.903Z,82.00
2019-04-10T05:41:11.337Z,81.70
2019-04-10T05:43:38.857Z,81.60
2019-04-10T05:46:07.060Z,81.50
2019-04-10T05:48:35.574Z,81.30
2019-04-10T05:51:05.698Z,81.20
2019-04-10T05:53:32.475Z,81.00
2019-04-10T05:55:59.886Z,80.80
2019-04-10T05:58:27.310Z,80.70
2019-04-10T06:00:56.841Z,80.60
2019-04-10T06:03:24.733Z,80.40
2019-04-10T06:05:52.151Z,80.40
2019-04-10T06:08:19.491Z,80.00
2019-04-10T06:10:47.726Z,79.80
2019-04-10T06:13:15.165Z,79.60
2019-04-10T06:15:43.408Z,79.50
2019-04-10T06:18:11.100Z,79.20
2019-04-10T06:20:39.777Z,78.80
2019-04-10T06:23:07.434Z,78.70
2019-04-10T06:25:38.034Z,78.40
2019-04-10T06:28:05.208Z,77.90
2019-04-10T06:30:32.730Z,77.50
2019-04-10T06:33:00.070Z,76.90
2019-04-10T06:35:28.192Z,76.40
2019-04-10T06:37:56.734Z,76.20
2019-04-10T06:40:26.346Z,75.90
2019-04-10T06:42:56.092Z,75.60
2019-04-10T06:45:23.912Z,75.30
2019-04-10T06:47:51.401Z,75.00
2019-04-10T06:50:18.995Z,74.60
2019-04-10T06:52:47.160Z,74.50
2019-04-10T06:55:15.361Z,74.40
2019-04-10T06:57:50.969Z,74.30
2019-04-10T07:00:16.519Z,74.40
2019-04-10T07:02:44.388Z,74.20
2019-04-10T07:05:12.395Z,73.80
2019-04-10T07:07:50.959Z,73.60
2019-04-10T07:10:23.590Z,73.80
2019-04-10T07:12:39.736Z,73.60
2019-04-10T07:15:08.373Z,73.10
2019-04-10T07:17:40.335Z,73.10
2019-04-10T07:20:05.658Z,72.70
2019-04-10T07:22:33.206Z,72.50
2019-04-10T07:25:00.669Z,72.50
2019-04-10T07:27:28.038Z,72.20
2019-04-10T07:29:59.163Z,71.90
2019-04-10T07:32:25.660Z,71.40
2019-04-10T07:34:57.435Z,70.70
2019-04-10T07:37:24.048Z,70.50
2019-04-10T07:39:51.517Z,70.30
2019-04-10T07:42:26.867Z,70.10
2019-04-10T07:44:48.101Z,69.80
2019-04-10T07:47:15.541Z,69.60
2019-04-10T07:49:42.770Z,69.70
2019-04-10T07:52:10.523Z,69.40
2019-04-10T07:54:38.722Z,69.30
2019-04-10T07:57:08.284Z,68.80
2019-04-10T07:59:35.678Z,68.40
2019-04-10T08:02:05.971Z,68.00
2019-04-10T08:04:33.167Z,67.70
2019-04-10T08:07:00.954Z,67.50
2019-04-10T08:09:29.143Z,66.90
2019-04-10T08:11:56.764Z,66.30
2019-04-10T08:14:24.284Z,66.10
2019-04-10T08:16:51.891Z,65.40
2019-04-10T08:19:19.266Z,65.00
2019-04-10T08:21:46.614Z,64.40
2019-04-10T08:24:13.942Z,64.10
2019-04-10T08:26:41.265Z,63.60
2019-04-10T08:29:08.609Z,63.40
2019-04-10T08:31:37.370Z,62.80
2019-04-10T08:34:04.752Z,62.30
2019-04-10T08:36:32.099Z,62.00
2019-04-10T08:38:59.357Z,61.50
2019-04-10T08:41:27.066Z,60.90
2019-04-10T08:43:56.611Z,60.80
2019-04-10T08:46:24.082Z,60.10
2019-04-10T08:48:51.876Z,59.40
2019-04-10T08:51:19.290Z,59.20
2019-04-10T08:53:46.760Z,58.80
2019-04-10T08:56:14.129Z,58.60
2019-04-10T08:58:41.441Z,58.40
2019-04-10T09:01:09.135Z,57.90
2019-04-10T09:03:38.924Z,57.10
2019-04-10T09:06:07.186Z,56.90
2019-04-10T09:08:35.133Z,56.60
2019-04-10T09:11:02.966Z,56.10
2019-04-10T09:13:30.661Z,56.20
2019-04-10T09:15:58.437Z,55.90
2019-04-10T09:18:25.805Z,55.60
2019-04-10T09:20:53.165Z,55.40
2019-04-10T09:23:32.039Z,55.10
2019-04-10T09:25:49.860Z,54.50
2019-04-10T09:28:18.087Z,53.80
2019-04-10T09:30:45.641Z,53.20
2019-04-10T09:33:21.235Z,52.70
2019-04-10T09:35:42.608Z,51.90
2019-04-10T09:38:10.598Z,51.10
2019-04-10T09:40:38.395Z,50.40
2019-04-10T09:43:05.797Z,49.40
2019-04-10T09:45:33.186Z,48.80
2019-04-10T09:48:00.525Z,48.00
2019-04-10T09:50:27.797Z,46.50
2019-04-10T09:52:55.137Z,43.20
2019-04-10T09:55:22.467Z,39.00
2019-04-10T09:57:49.795Z,36.10
2019-04-10T10:00:17.680Z,33.80
2019-04-10T10:02:45.299Z,31.70
2019-04-10T10:05:12.955Z,30.00
2019-04-10T10:07:41.058Z,28.80
2019-04-10T10:10:09.233Z,28.00
2019-04-10T10:12:36.585Z,27.40
2019-04-10T10:15:05.341Z,27.00
2019-04-10T10:17:32.880Z,26.10
2019-04-10T10:20:01.694Z,24.80
2019-04-10T10:22:29.336Z,24.50
2019-04-10T10:24:57.916Z,23.90
2019-04-10T10:27:25.245Z,23.40
2019-04-10T10:29:54.285Z,22.90
2019-04-10T10:32:21.829Z,22.60
2019-04-10T10:34:49.155Z,22.20
2019-04-10T10:37:16.967Z,22.00
2019-04-10T10:39:45.166Z,21.80
2019-04-10T10:42:13.633Z,21.50
2019-04-10T10:44:41.065Z,21.50
2019-04-10T10:47:08.401Z,21.20
2019-04-10T10:49:36.618Z,20.90
2019-04-10T10:52:04.283Z,20.90
2019-04-10T10:54:32.594Z,20.80
2019-04-10T10:57:00.544Z,20.80
2019-04-10T10:59:27.994Z,20.50
2019-04-10T11:01:55.978Z,20.40
2019-04-10T11:04:23.417Z,20.60
2019-04-10T11:06:57.750Z,20.50
2019-04-10T11:09:20.279Z,20.60
2019-04-10T11:11:47.717Z,20.80
2019-04-10T11:14:15.089Z,21.00
2019-04-10T11:16:42.483Z,21.20
2019-04-10T11:19:10.680Z,21.10
2019-04-10T11:21:38.948Z,21.10
2019-04-10T11:24:07.006Z,21.20
2019-04-10T11:26:36.059Z,21.40
2019-04-10T11:29:03.742Z,22.30
2019-04-10T11:31:31.502Z,22.70
2019-04-10T11:34:00.063Z,23.20
2019-04-10T11:36:28.208Z,23.30
2019-04-10T11:39:04.992Z,23.90
2019-04-10T11:41:26.112Z,24.40
2019-04-10T11:43:56.036Z,25.00
2019-04-10T11:46:25.296Z,25.40
2019-04-10T11:48:54.541Z,25.70
2019-04-10T11:51:23.322Z,26.30
2019-04-10T11:53:53.495Z,27.10
2019-04-10T11:56:21.108Z,28.10
2019-04-10T11:58:54.050Z,29.20
2019-04-10T12:01:21.218Z,29.80
2019-04-10T12:03:51.402Z,30.00
2019-04-10T12:06:18.391Z,30.20
2019-04-10T12:09:08.343Z,30.70
2019-04-10T12:11:18.759Z,31.30
2019-04-10T12:13:43.942Z,31.60
2019-04-10T12:16:11.244Z,31.90
2019-04-10T12:18:38.566Z,32.20
2019-04-10T12:21:05.917Z,32.40
2019-04-10T12:23:33.259Z,32.60
2019-04-10T12:26:01.282Z,32.90
2019-04-10T12:28:29.790Z,32.60
2019-04-10T12:30:57.206Z,32.30
2019-04-10T12:33:25.446Z,32.20
2019-04-10T12:35:53.998Z,31.40
2019-04-10T12:38:21.494Z,31.20
2019-04-10T12:40:48.825Z,31.20
2019-04-10T12:43:16.758Z,31.10
2019-04-10T12:45:44.396Z,30.70
2019-04-10T12:48:12.548Z,31.00
2019-04-10T12:50:39.916Z,31.00
2019-04-10T12:53:07.456Z,31.10
2019-04-10T12:55:35.000Z,31.10
2019-04-10T12:58:09.525Z,31.10
2019-04-10T13:00:31.836Z,31.30
2019-04-10T13:02:59.191Z,32.40
2019-04-10T13:05:27.338Z,33.10
2019-04-10T13:07:56.050Z,31.90
2019-04-10T13:10:23.559Z,31.30
2019-04-10T13:12:50.783Z,30.80
2019-04-10T13:15:19.214Z,30.60
2019-04-10T13:17:46.915Z,30.30
2019-04-10T13:20:15.611Z,29.90
2019-04-10T13:22:43.012Z,29.60
2019-04-10T13:25:12.283Z,30.00
2019-04-10T13:27:39.727Z,32.30
2019-04-10T13:30:12.606Z,33.90
2019-04-10T13:32:40.273Z,34.90
2019-04-10T13:35:08.161Z,35.30
2019-04-10T13:37:35.884Z,35.50
2019-04-10T13:40:04.064Z,35.80
2019-04-10T13:42:31.610Z,35.60
2019-04-10T13:44:59.261Z,35.10
2019-04-10T13:47:29.034Z,34.80
2019-04-10T13:49:55.757Z,35.00
2019-04-10T13:52:23.821Z,35.00
2019-04-10T13:54:51.175Z,34.70
2019-04-10T13:57:18.391Z,34.40
2019-04-10T13:59:45.709Z,34.50
2019-04-10T14:02:18.813Z,34.60
2019-04-10T14:04:47.293Z,34.80
2019-04-10T14:07:15.761Z,34.20
2019-04-10T14:09:48.419Z,34.50
2019-04-10T14:12:12.953Z,34.60
2019-04-10T14:14:40.496Z,34.80
2019-04-10T14:17:08.928Z,34.90
2019-04-10T14:19:37.366Z,34.90
2019-04-10T14:22:05.264Z,34.30
2019-04-10T14:24:40.415Z,34.40
2019-04-10T14:27:07.760Z,34.60
2019-04-10T14:29:35.408Z,34.60
2019-04-10T14:32:05.760Z,34.50
2019-04-10T14:34:33.080Z,34.50
2019-04-10T14:37:01.113Z,35.40
2019-04-10T14:39:28.519Z,34.70
2019-04-10T14:41:56.076Z,34.70
2019-04-10T14:44:23.405Z,34.40
2019-04-10T14:46:51.794Z,34.10
2019-04-10T14:49:19.344Z,34.40
2019-04-10T14:51:46.578Z,34.70
2019-04-10T14:54:13.816Z,34.80
2019-04-10T14:56:42.062Z,35.00
2019-04-10T14:59:09.503Z,35.60
2019-04-10T15:01:37.828Z,35.40
2019-04-10T15:04:05.197Z,36.00
2019-04-10T15:06:33.368Z,35.90
2019-04-10T15:09:00.888Z,35.50
2019-04-10T15:11:28.884Z,35.40
2019-04-10T15:13:57.205Z,35.10
2019-04-10T15:16:25.204Z,35.10
2019-04-10T15:18:52.733Z,35.30
2019-04-10T15:21:20.825Z,35.50
2019-04-10T15:23:48.221Z,35.40
2019-04-10T15:26:15.579Z,35.10
2019-04-10T15:28:43.599Z,35.00
2019-04-10T15:31:11.077Z,35.10
2019-04-10T15:33:39.366Z,35.40
2019-04-10T15:36:07.431Z,35.60
2019-04-10T15:38:35.744Z,35.80
2019-04-10T15:41:03.269Z,35.70
2019-04-10T15:43:30.500Z,35.90
2019-04-10T15:45:57.802Z,36.10
2019-04-10T15:48:25.205Z,35.60
2019-04-10T15:50:52.518Z,36.00
2019-04-10T15:53:20.232Z,36.60
2019-04-10T15:55:47.684Z,36.70
2019-04-10T15:58:15.073Z,36.90
2019-04-10T16:00:43.555Z,37.20
2019-04-10T16:03:11.319Z,37.10
2019-04-10T16:05:39.738Z,37.20
2019-04-10T16:08:08.118Z,37.50
2019-04-10T16:11:07.598Z,37.90
2019-04-10T16:13:46.482Z,38.20
2019-04-10T16:16:48.842Z,37.90
2019-04-10T16:19:51.340Z,38.20
2019-04-10T16:22:25.565Z,39.50
2019-04-10T16:24:53.404Z,39.70
2019-04-10T16:27:20.643Z,40.10
2019-04-10T16:29:48.987Z,40.20
2019-04-10T16:32:16.878Z,40.50
2019-04-10T16:34:44.946Z,40.60
2019-04-10T16:37:12.536Z,40.20
2019-04-10T16:39:40.336Z,40.30
2019-04-10T16:42:08.590Z,40.40
2019-04-10T16:44:37.245Z,40.50
2019-04-10T16:47:05.778Z,40.80
2019-04-10T16:49:33.247Z,41.10
2019-04-10T16:52:00.868Z,41.20
2019-04-10T16:54:29.218Z,41.50
2019-04-10T16:56:56.683Z,42.10
2019-04-10T16:59:24.029Z,41.60
2019-04-10T17:01:51.328Z,42.00
2019-04-10T17:04:18.959Z,42.30
2019-04-10T17:06:46.470Z,42.40
2019-04-10T17:09:16.552Z,42.50
2019-04-10T17:11:43.897Z,42.90
2019-04-10T17:14:11.160Z,42.70
2019-04-10T17:16:38.488Z,42.30
2019-04-10T17:19:05.746Z,42.40
2019-04-10T17:21:34.069Z,42.70
2019-04-10T17:24:01.742Z,43.00
2019-04-10T17:26:29.194Z,43.20
2019-04-10T17:28:56.694Z,43.60
2019-04-10T17:31:24.645Z,43.80
2019-04-10T17:33:52.439Z,44.00
2019-04-10T17:36:20.918Z,44.30
2019-04-10T17:38:48.971Z,44.60
2019-04-10T17:41:17.684Z,45.00
2019-04-10T17:43:45.506Z,45.10
2019-04-10T17:46:13.238Z,45.00
2019-04-10T17:48:40.611Z,45.10
2019-04-10T17:51:08.260Z,45.20
2019-04-10T17:53:35.769Z,45.50
2019-04-10T17:56:04.120Z,45.30
2019-04-10T17:58:31.775Z,45.30
2019-04-10T18:01:01.881Z,45.20
2019-04-10T18:03:39.599Z,45.40
2019-04-10T18:05:59.294Z,45.80
2019-04-10T18:08:28.310Z,46.20
2019-04-10T18:10:57.204Z,46.60
2019-04-10T18:13:26.611Z,46.70
2019-04-10T18:15:55.411Z,46.50
2019-04-10T18:18:23.973Z,46.70
2019-04-10T18:20:52.491Z,47.00
2019-04-10T18:23:19.932Z,47.50
2019-04-10T18:25:47.268Z,47.70
2019-04-10T18:28:14.581Z,48.00
2019-04-10T18:30:41.935Z,48.30
2019-04-10T18:33:09.913Z,48.70
2019-04-10T18:35:38.556Z,48.90
2019-04-10T18:38:05.977Z,48.90
2019-04-10T18:40:33.308Z,49.60
2019-04-10T18:43:00.661Z,49.10
2019-04-10T18:45:28.101Z,49.20
2019-04-10T18:47:56.431Z,49.40
2019-04-10T18:50:24.481Z,49.50
2019-04-10T18:52:51.924Z,49.60
2019-04-10T18:55:20.398Z,49.70
2019-04-10T18:57:47.808Z,49.80
2019-04-10T19:00:33.116Z,49.90
2019-04-10T19:03:18.226Z,50.10
2019-04-10T19:05:48.526Z,50.20
2019-04-10T19:08:16.311Z,50.30
2019-04-10T19:10:43.814Z,50.40
2019-04-10T19:13:11.196Z,50.60
2019-04-10T19:15:40.221Z,50.60
2019-04-10T19:18:07.856Z,50.70
2019-04-10T19:20:35.387Z,50.70
2019-04-10T19:23:02.756Z,50.90
2019-04-10T19:25:30.303Z,51.00
2019-04-10T19:27:58.149Z,51.10
2019-04-10T19:30:43.556Z,51.20
2019-04-10T19:33:12.022Z,51.50
2019-04-10T19:35:39.455Z,51.50
2019-04-10T19:38:07.343Z,51.60
2019-04-10T19:40:36.963Z,51.60
2019-04-10T19:43:04.643Z,51.70
2019-04-10T19:45:34.119Z,51.80
2019-04-10T19:48:01.539Z,52.00
2019-04-10T19:50:29.662Z,52.00
2019-04-10T19:52:57.161Z,52.10
2019-04-10T19:55:24.585Z,52.10
2019-04-10T19:57:51.811Z,52.20
2019-04-10T20:00:22.143Z,52.30
2019-04-10T20:02:49.602Z,52.50
2019-04-10T20:05:17.011Z,52.70
2019-04-10T20:07:44.968Z,52.80
2019-04-10T20:10:12.973Z,52.90
2019-04-10T20:12:40.452Z,53.00
2019-04-10T20:15:08.049Z,53.10
2019-04-10T20:17:35.762Z,53.10
2019-04-10T20:20:04.710Z,53.20
2019-04-10T20:22:32.726Z,53.20
2019-04-10T20:25:00.124Z,53.30
2019-04-10T20:27:27.816Z,53.40
2019-04-10T20:29:55.277Z,53.50
2019-04-10T20:32:22.849Z,53.50
2019-04-10T20:34:50.271Z,54.10
2019-04-10T20:37:18.511Z,53.60
2019-04-10T20:39:46.038Z,53.70
2019-04-10T20:42:14.029Z,53.80
2019-04-10T20:44:41.420Z,54.10
2019-04-10T20:47:08.853Z,54.30
2019-04-10T20:49:36.500Z,54.50
2019-04-10T20:52:04.214Z,54.60
2019-04-10T20:54:31.543Z,54.70
2019-04-10T20:56:59.207Z,54.70
2019-04-10T20:59:26.734Z,54.70
2019-04-10T21:01:54.078Z,54.70
2019-04-10T21:04:21.373Z,54.70
2019-04-10T21:06:48.799Z,54.70
2019-04-10T21:09:17.174Z,54.80
2019-04-10T21:11:58.040Z,54.80
2019-04-10T21:14:14.081Z,54.70
2019-04-10T21:16:42.187Z,54.90
2019-04-10T21:19:11.043Z,55.20
2019-04-10T21:21:39.085Z,55.40
2019-04-10T21:24:06.900Z,55.30
2019-04-10T21:26:34.671Z,55.20
2019-04-10T21:29:04.450Z,55.90
2019-04-10T21:31:52.520Z,55.40
2019-04-10T21:34:35.550Z,55.40
2019-04-10T21:37:03.806Z,55.30
2019-04-10T21:39:31.775Z,55.10
2019-04-10T21:42:09.961Z,55.20
2019-04-10T21:44:28.970Z,55.10
2019-04-10T21:46:57.202Z,55.20
2019-04-10T21:49:24.585Z,55.20
2019-04-10T21:51:51.908Z,55.40
2019-04-10T21:54:19.220Z,55.50
2019-04-10T21:56:46.550Z,55.70
2019-04-10T21:59:16.310Z,55.70
2019-04-10T22:01:43.267Z,55.60
2019-04-10T22:04:10.666Z,55.80
2019-04-10T22:06:59.293Z,55.80
2019-04-10T22:09:50.950Z,55.80
2019-04-10T22:12:29.763Z,55.80
2019-04-10T22:14:51.019Z,55.70
2019-04-10T22:17:19.132Z,56.00
2019-04-10T22:19:47.372Z,56.00
2019-04-10T22:22:14.955Z,56.10
2019-04-10T22:24:42.651Z,56.30
2019-04-10T22:27:12.344Z,56.30
2019-04-10T22:29:39.689Z,56.40
2019-04-10T22:32:07.047Z,56.50
2019-04-10T22:34:34.462Z,56.60
2019-04-10T22:37:02.202Z,56.50
2019-04-10T22:39:29.580Z,56.70
2019-04-10T22:41:57.171Z,56.90
2019-04-10T22:44:34.693Z,57.00
2019-04-10T22:46:54.417Z,57.00
2019-04-10T22:49:22.213Z,57.10
2019-04-10T22:51:49.701Z,57.20
2019-04-10T22:54:17.910Z,57.30
2019-04-10T22:56:45.628Z,57.60
2019-04-10T22:59:13.581Z,57.70
2019-04-10T23:01:41.091Z,57.60
2019-04-10T23:04:08.303Z,57.80
2019-04-10T23:06:35.744Z,57.80
2019-04-10T23:09:06.305Z,58.00
2019-04-10T23:11:41.133Z,58.00
2019-04-10T23:14:02.969Z,58.20
2019-04-10T23:16:30.394Z,58.20
2019-04-10T23:18:58.162Z,58.20
2019-04-10T23:21:25.444Z,58.20
2019-04-10T23:23:52.739Z,58.30
2019-04-10T23:26:20.767Z,58.40
2019-04-10T23:28:49.549Z,58.50
2019-04-10T23:31:17.361Z,58.80
2019-04-10T23:33:44.757Z,59.00
2019-04-10T23:36:12.186Z,59.00
2019-04-10T23:38:39.662Z,59.10
2019-04-10T23:41:07.434Z,59.30
2019-04-10T23:43:35.681Z,59.30
2019-04-10T23:46:04.141Z,59.30
2019-04-10T23:48:31.607Z,59.40
2019-04-10T23:50:58.922Z,59.40
2019-04-10T23:53:26.669Z,59.50
2019-04-10T23:55:54.469Z,59.70
2019-04-10T23:58:22.210Z,59.80
